createdAt,value
2023-04-27T04:22:02.620Z,70.40
2023-04-27T04:25:16.944Z,70.40
2023-04-27T04:28:31.190Z,70.90
2023-04-27T04:31:45.547Z,70.36
2023-04-27T04:35:01.652Z,70.90
2023-04-27T04:38:17.278Z,70.15
2023-04-27T04:41:31.503Z,68.96
2023-04-27T04:44:45.978Z,70.14
2023-04-27T04:48:01.225Z,69.38
2023-04-27T04:51:15.432Z,68.62
2023-04-27T04:54:31.091Z,69.60
2023-04-27T04:57:45.281Z,69.85
2023-04-27T05:01:01.071Z,69.80
2023-04-27T05:04:16.492Z,69.96
2023-04-27T05:07:37.334Z,67.89
2023-04-27T05:10:54.764Z,67.91
2023-04-27T05:14:27.728Z,66.68
2023-04-27T05:17:42.538Z,63.92
2023-04-27T05:21:00.501Z,63.21
2023-04-27T05:24:17.122Z,63.66
2023-04-27T05:27:43.583Z,61.92
2023-04-27T05:31:18.526Z,61.51
2023-04-27T05:34:48.721Z,61.75
2023-04-27T05:38:10.318Z,60.32
2023-04-27T05:41:26.917Z,61.41
2023-04-27T05:45:03.299Z,60.22
2023-04-27T05:48:35.960Z,59.49
2023-04-27T05:51:51.040Z,58.83
2023-04-27T05:55:13.746Z,59.31
2023-04-27T05:58:57.209Z,58.59
2023-04-27T06:02:41.423Z,59.34
2023-04-27T06:06:04.825Z,57.37
2023-04-27T06:09:43.360Z,56.77
2023-04-27T06:13:14.888Z,58.05
2023-04-27T06:16:31.383Z,57.78
2023-04-27T06:20:22.285Z,56.04
2023-04-27T06:23:37.390Z,55.78
2023-04-27T06:26:57.962Z,54.98
2023-04-27T06:30:15.754Z,54.15
2023-04-27T06:33:37.822Z,49.94
2023-04-27T06:37:14.212Z,46.81
2023-04-27T06:40:40.620Z,47.88
2023-04-27T06:44:41.255Z,49.21
2023-04-27T06:48:01.645Z,49.29
2023-04-27T06:51:30.195Z,48.75
2023-04-27T06:54:51.705Z,48.63
2023-04-27T06:58:34.901Z,48.72
2023-04-27T07:02:36.277Z,48.85
2023-04-27T07:06:10.266Z,50.46
2023-04-27T07:09:27.808Z,48.80
2023-04-27T07:13:14.381Z,49.63
2023-04-27T07:16:47.818Z,48.56
2023-04-27T07:20:42.088Z,49.27
2023-04-27T07:24:28.098Z,47.96
2023-04-27T07:31:25.191Z,48.23
2023-04-27T07:34:59.676Z,49.24
2023-04-27T07:38:13.848Z,48.51
2023-04-27T07:41:37.935Z,46.93
2023-04-27T07:49:16.927Z,46.19
2023-04-27T07:52:46.226Z,44.69
2023-04-27T07:56:07.904Z,45.06
2023-04-27T07:59:24.747Z,45.42
2023-04-27T08:06:21.881Z,45.02
2023-04-27T08:09:43.388Z,44.82
2023-04-27T08:13:19.280Z,43.42
2023-04-27T08:16:57.354Z,42.22
2023-04-27T08:20:19.451Z,41.45
2023-04-27T08:23:48.753Z,42.08
2023-04-27T08:27:11.604Z,40.39
2023-04-27T08:30:47.387Z,39.09
2023-04-27T08:38:25.707Z,39.68
2023-04-27T08:42:12.281Z,38.81
2023-04-27T08:45:33.458Z,38.92
2023-04-27T08:49:15.082Z,40.26
2023-04-27T08:53:07.573Z,39.80
2023-04-27T08:56:33.494Z,37.46
2023-04-27T08:59:52.919Z,35.40
2023-04-27T09:03:29.419Z,32.61
2023-04-27T09:06:53.422Z,33.33
2023-04-27T09:10:30.524Z,31.41
2023-04-27T09:13:55.190Z,30.81
2023-04-27T09:17:17.078Z,30.96
2023-04-27T09:20:48.756Z,31.14
2023-04-27T09:24:15.221Z,33.09
2023-04-27T09:27:31.937Z,32.12
2023-04-27T09:34:32.563Z,33.44
2023-04-27T09:37:46.703Z,32.51
2023-04-27T09:41:20.731Z,32.12
2023-04-27T09:44:51.357Z,32.17
2023-04-27T09:48:25.190Z,31.08
2023-04-27T09:51:44.157Z,30.74
2023-04-27T09:54:59.135Z,31.56
2023-04-27T09:59:20.058Z,30.14
2023-04-27T10:02:53.206Z,30.86
2023-04-27T10:07:08.051Z,31.22
2023-04-27T10:10:45.482Z,29.74
2023-04-27T10:13:59.571Z,29.48
2023-04-27T10:17:16.068Z,31.20
2023-04-27T10:20:44.049Z,29.76
2023-04-27T10:24:21.687Z,29.90
2023-04-27T10:27:46.608Z,28.91
2023-04-27T10:31:15.538Z,29.39
2023-04-27T10:34:59.823Z,27.62
2023-04-27T10:38:34.032Z,28.25
2023-04-27T10:41:53.180Z,26.93
2023-04-27T10:45:17.097Z,28.11
2023-04-27T10:52:43.835Z,28.63
2023-04-27T10:56:01.214Z,28.46
2023-04-27T10:59:28.615Z,28.94
2023-04-27T11:03:32.015Z,29.36
2023-04-27T11:07:14.723Z,28.65
2023-04-27T11:14:53.442Z,28.24
2023-04-27T11:18:34.226Z,28.74
2023-04-27T11:21:49.364Z,29.18
2023-04-27T11:25:25.712Z,29.42
2023-04-27T11:29:06.892Z,30.68
2023-04-27T11:32:44.924Z,31.75
2023-04-27T11:36:03.537Z,31.50
2023-04-27T11:39:28.202Z,31.19
2023-04-27T11:42:48.326Z,30.33
2023-04-27T11:53:55.732Z,29.86
2023-04-27T11:57:47.591Z,30.21
2023-04-27T12:01:11.160Z,28.95
2023-04-27T12:04:33.902Z,28.36
2023-04-27T12:07:50.629Z,28.56
2023-04-27T12:11:29.217Z,29.05
2023-04-27T12:19:21.593Z,27.92
2023-04-27T12:23:08.981Z,28.01
2023-04-27T12:26:33.854Z,27.80
2023-04-27T12:29:56.680Z,29.01
2023-04-27T12:33:25.351Z,28.85
2023-04-27T12:37:11.974Z,28.61
2023-04-27T12:40:27.412Z,28.32
2023-04-27T12:43:47.221Z,27.56
2023-04-27T12:47:34.565Z,27.99
2023-04-27T12:50:52.619Z,27.42
2023-04-27T12:54:17.521Z,27.22
2023-04-27T12:57:33.992Z,26.71
2023-04-27T13:00:55.377Z,27.54
2023-04-27T13:04:10.441Z,28.07
2023-04-27T13:07:30.271Z,29.58
2023-04-27T13:11:26.300Z,27.58
2023-04-27T13:15:02.014Z,28.51
2023-04-27T13:18:35.048Z,27.22
2023-04-27T13:22:08.176Z,28.27
2023-04-27T13:25:39.123Z,28.76
2023-04-27T13:29:09.401Z,26.57
2023-04-27T13:32:23.998Z,28.42
2023-04-27T13:35:39.818Z,28.75
2023-04-27T13:38:56.673Z,28.59
2023-04-27T13:42:15.634Z,27.62
2023-04-27T13:45:30.967Z,27.60
2023-04-27T13:48:45.673Z,28.63
2023-04-27T13:52:03.482Z,28.16
2023-04-27T13:55:25.606Z,27.46
2023-04-27T13:58:41.394Z,27.63
2023-04-27T14:01:55.652Z,27.71
2023-04-27T14:05:10.338Z,27.98
2023-04-27T14:08:26.922Z,27.00
2023-04-27T14:11:52.877Z,28.12
2023-04-27T14:15:11.205Z,28.13
2023-04-27T14:18:31.879Z,29.05
2023-04-27T14:21:47.107Z,30.11
2023-04-27T14:25:02.800Z,29.41
2023-04-27T14:28:31.079Z,29.08
2023-04-27T14:31:45.409Z,29.03
2023-04-27T14:34:59.547Z,29.59
2023-04-27T14:38:13.758Z,29.08
2023-04-27T14:41:29.405Z,28.73
2023-04-27T14:44:43.840Z,28.77
2023-04-27T14:47:58.170Z,28.78
2023-04-27T14:51:12.470Z,29.83
2023-04-27T14:54:26.629Z,30.44
2023-04-27T14:57:42.351Z,28.88
2023-04-27T15:00:56.607Z,29.71
2023-04-27T15:04:12.366Z,29.57
2023-04-27T15:07:26.828Z,29.92
